Latest Weather Observations for Adelaide

IDS60801

Issued at 9:31 pm CDT Saturday 20 December 2014 (issued every 30 minutes, with the page automatically refreshed every 10 minutes)

About weather observations | Map of weather stations | Latest weather observations for SA | Other Formats
Station Details ID: 023090 Name: KENT TOWN Lat: -34.92 Lon: 138.62 Height: 48.0 m
Data from the previous 72 hours. | See also: Recent months at Adelaide
Date/Time
CDT
Temp
°C
App
Temp
°C
Dew
Point
Rel
Hum
%
Delta-T
°C
Wind Press
QNH
hPa
Press
MSL
hPa
Rain
since 9 am
mm
Dir
 
Spd
km/h
Gust
km/h
Spd
kts
Gust
kts
20/09:30pm 23.5 23.3 11.8 47 6.6 ENE 4 9 2 5 1013.7 - 0.0
20/09:00pm 24.3 23.8 12.0 46 7.0 ESE 6 9 3 5 1013.8 1013.6 0.0
20/08:30pm 25.1 23.5 11.5 42 7.7 ESE 11 20 6 11 1013.6 - 0.0
20/08:00pm 26.5 25.0 10.7 37 8.9 SE 9 19 5 10 1013.4 - 0.0
20/07:30pm 27.6 26.3 9.9 33 9.9 S 7 11 4 6 1013.2 - 0.0
20/07:00pm 28.1 26.8 10.1 32 10.1 SSW 7 11 4 6 1013.3 - 0.0
20/06:30pm 28.4 26.2 9.3 30 10.6 SSW 11 15 6 8 1013.4 - 0.0
20/06:00pm 29.1 26.1 9.4 29 11.0 W 15 22 8 12 1013.7 1013.5 0.0
20/05:30pm 29.2 26.3 9.6 29 11.0 W 15 20 8 11 1013.6 - 0.0
20/05:00pm 29.0 25.6 9.2 29 11.0 WSW 17 24 9 13 1013.9 - 0.0
20/04:30pm 29.4 25.5 8.5 27 11.5 WSW 19 24 10 13 1014.1 - 0.0
20/04:00pm 30.0 26.9 8.7 26 11.8 W 15 20 8 11 1014.4 - 0.0
20/03:30pm 30.0 27.9 8.1 25 12.0 SW 9 15 5 8 1014.7 - 0.0
20/03:00pm 29.3 26.3 7.5 25 11.8 SW 13 20 7 11 1015.3 1015.2 0.0
20/02:30pm 29.0 26.1 6.3 23 12.0 W 11 17 6 9 1015.9 - 0.0
20/02:00pm 27.7 24.7 9.2 31 10.2 WSW 15 20 8 11 1016.4 - 0.0
20/01:30pm 26.9 24.6 10.5 35 9.2 W 13 22 7 12 1017.0 - 0.0
20/01:00pm 26.3 24.0 10.4 36 8.9 W 13 19 7 10 1017.4 - 0.0
20/12:30pm 26.6 24.0 10.6 36 9.0 WNW 15 20 8 11 1017.7 - 0.0
20/12:00pm 25.8 24.0 9.6 36 8.9 W 9 15 5 8 1018.0 1017.9 0.0
20/11:30am 24.9 23.1 9.3 37 8.5 WSW 9 17 5 9 1018.4 - 0.0
20/11:00am 23.7 22.0 8.5 38 8.1 WSW 7 13 4 7 1018.7 - 0.0
20/10:30am 22.6 20.5 8.2 39 7.6 N 9 15 5 8 1019.0 - 0.0
20/10:00am 21.6 19.8 8.0 41 7.1 WNW 7 11 4 6 1019.2 - 0.0
20/09:30am 20.5 19.0 8.4 45 6.3 N 6 11 3 6 1019.7 - 0.0
20/09:00am 19.1 17.4 8.5 50 5.5 E 7 9 4 5 1019.7 1019.6 0.0
20/08:30am 18.8 17.6 9.5 54 4.9 W 6 9 3 5 1019.7 - 0.0
20/08:00am 17.9 18.0 10.2 60 4.1 CALM 0 0 0 0 1019.5 - 0.0
20/07:30am 16.9 16.1 9.6 62 3.8 SE 4 7 2 4 1019.5 - 0.0
20/07:00am 14.5 13.3 9.4 71 2.6 E 6 9 3 5 1019.4 - 0.0
20/06:30am 13.3 13.2 9.6 78 1.9 CALM 0 0 0 0 1019.3 - 0.0
20/06:00am 13.0 13.1 10.1 82 1.5 CALM 0 0 0 0 1019.0 1018.9 0.0
20/05:30am 13.4 13.4 9.7 78 1.9 CALM 0 0 0 0 1018.7 - 0.0
20/05:00am 13.6 12.4 9.7 77 2.0 S 6 9 3 5 1018.3 - 0.0
20/04:30am 13.4 12.7 10.1 80 1.7 SE 4 7 2 4 1018.2 - 0.0
20/04:00am 14.1 12.9 9.6 74 2.3 SSE 6 7 3 4 1018.2 - 0.0
20/03:30am 13.8 13.9 10.3 79 1.8 CALM 0 0 0 0 1018.4 - 0.0
20/03:00am 14.1 14.2 10.0 76 2.1 CALM 0 0 0 0 1018.5 1018.4 0.0
20/02:30am 14.6 13.5 9.8 73 2.5 N 6 9 3 5 1018.7 - 0.0
20/02:00am 14.5 14.6 10.1 75 2.3 CALM 0 0 0 0 1019.0 - 0.0
20/01:30am 14.8 14.9 10.2 74 2.4 CALM 0 0 0 0 1019.4 - 0.0
20/01:00am 15.1 14.3 9.7 70 2.8 NNW 4 7 2 4 1019.9 - 0.0
20/12:30am 15.3 14.8 10.6 73 2.5 E 4 7 2 4 1019.9 - 0.0
20/12:00am 15.8 14.0 9.4 65 3.3 SSE 9 13 5 7 1020.4 1020.3 0.0
 
Date/Time
CDT
Temp
°C
App
Temp
°C
Dew
Point
Rel
Hum
%
Delta-T
°C
Wind Press
QNH
hPa
Press
MSL
hPa
Rain
since 9 am
mm
Dir
 
Spd
km/h
Gust
km/h
Spd
kts
Gust
kts
19/11:30pm 16.0 13.8 9.2 64 3.5 S 11 17 6 9 1020.4 - 0.0
19/11:00pm 16.0 14.8 9.4 65 3.4 SSE 6 11 3 6 1020.6 - 0.0
19/10:30pm 16.2 14.0 9.4 64 3.5 SE 11 17 6 9 1020.7 - 0.0
19/10:00pm 16.4 13.8 9.2 62 3.7 SSE 13 22 7 12 1020.7 - 0.0
19/09:30pm 16.9 13.9 9.4 61 3.9 SSE 15 20 8 11 1020.6 - 0.0
19/09:00pm 17.5 14.1 9.2 58 4.3 S 17 24 9 13 1020.4 1020.3 0.0
19/08:30pm 18.7 14.7 8.9 53 5.1 S 20 28 11 15 1020.1 - 0.0
19/08:00pm 19.9 16.3 10.0 53 5.3 SW 19 26 10 14 1019.8 - 0.0
19/07:30pm 20.9 17.8 10.2 50 5.8 SW 17 33 9 18 1019.7 - 0.0
19/07:00pm 21.8 18.1 10.2 47 6.3 SSW 20 30 11 16 1019.5 - 0.0
19/06:30pm 22.1 18.6 10.2 46 6.5 SSW 19 37 10 20 1019.3 - 0.0
19/06:00pm 22.0 18.2 9.8 45 6.6 SW 20 32 11 17 1019.0 1018.9 0.0
19/05:30pm 22.3 17.5 8.7 41 7.2 SW 24 41 13 22 1019.1 - 0.0
19/05:00pm 22.5 17.6 8.3 40 7.5 WSW 24 35 13 19 1019.2 - 0.0
19/04:30pm 23.1 19.1 8.9 40 7.6 WSW 20 35 11 19 1019.4 - 0.0
19/04:00pm 23.1 18.7 9.1 41 7.5 WSW 22 30 12 16 1019.7 - 0.0
19/03:30pm 23.6 19.7 9.6 41 7.6 W 20 32 11 17 1019.8 - 0.0
19/03:00pm 22.6 19.3 9.7 44 7.0 WSW 17 26 9 14 1020.1 1020.0 0.0
19/02:30pm 23.4 19.8 9.8 42 7.4 W 19 30 10 16 1020.4 - 0.0
19/02:00pm 22.4 18.5 9.6 44 6.9 WSW 20 30 11 16 1020.6 - 0.0
19/01:30pm 23.0 18.7 9.2 41 7.4 W 22 30 12 16 1020.5 - 0.0
19/01:00pm 22.1 18.3 9.2 43 6.9 W 19 28 10 15 1020.7 - 0.0
19/12:30pm 22.7 18.6 8.8 41 7.4 W 20 30 11 16 1020.9 - 0.0
19/12:00pm 21.0 17.0 8.4 44 6.6 WSW 19 32 10 17 1020.8 1020.7 0.0
19/11:30am 21.4 17.3 7.9 41 7.0 W 19 28 10 15 1020.8 - 0.0
19/11:00am 20.5 17.5 7.9 44 6.5 WSW 13 22 7 12 1020.6 - 0.0
19/10:30am 20.8 17.9 6.5 39 7.2 SSE 11 17 6 9 1020.7 - 0.0
19/10:00am 19.0 17.0 7.1 46 6.0 SE 7 17 4 9 1020.7 - 0.0
19/09:30am 18.9 16.2 7.5 47 5.8 SSW 11 19 6 10 1020.7 - 0.0
19/09:00am 18.2 15.2 6.2 45 5.9 SSW 11 20 6 11 1020.5 1020.4 0.0
19/08:30am 17.2 14.0 6.7 50 5.2 SSW 13 20 7 11 1020.2 - 0.0
19/08:00am 16.5 14.1 7.0 53 4.7 S 9 15 5 8 1019.9 - 0.0
19/07:30am 14.8 14.1 8.4 65 3.2 W 2 6 1 3 1019.6 - 0.0
19/07:00am 12.2 11.8 8.4 77 1.9 CALM 0 0 0 0 1019.0 - 0.0
19/06:30am 11.4 11.0 8.1 80 1.6 CALM 0 0 0 0 1018.8 - 0.0
19/06:00am 11.4 11.0 8.1 80 1.6 CALM 0 0 0 0 1018.6 1018.5 0.0
19/05:30am 11.8 11.3 7.9 77 1.9 CALM 0 0 0 0 1018.3 - 0.0
19/05:00am 12.1 11.5 7.6 74 2.2 CALM 0 0 0 0 1018.3 - 0.0
19/04:30am 12.4 11.9 7.7 73 2.3 CALM 0 0 0 0 1018.1 - 0.0
19/04:00am 12.6 12.1 7.7 72 2.4 CALM 0 0 0 0 1018.1 - 0.0
19/03:30am 12.8 12.3 7.7 71 2.5 CALM 0 6 0 3 1018.0 - 0.0
19/03:00am 13.3 11.6 7.4 67 2.9 SSE 6 7 3 4 1018.0 1017.9 0.0
19/02:30am 13.3 11.6 7.6 68 2.8 SSE 6 7 3 4 1018.1 - 0.0
19/02:00am 13.3 11.8 8.3 72 2.5 S 6 9 3 5 1018.2 - 0.0
19/01:30am 13.6 11.9 8.4 71 2.6 S 7 11 4 6 1018.2 - 0.0
19/01:00am 13.9 12.2 8.3 69 2.8 S 7 11 4 6 1018.2 - 0.0
19/12:30am 14.3 12.5 8.1 66 3.1 S 7 11 4 6 1018.2 - 0.0
19/12:00am 14.6 12.5 8.2 65 3.2 S 9 13 5 7 1018.1 1018.0 0.0
 
Date/Time
CDT
Temp
°C
App
Temp
°C
Dew
Point
Rel
Hum
%
Delta-T
°C
Wind Press
QNH
hPa
Press
MSL
hPa
Rain
since 9 am
mm
Dir
 
Spd
km/h
Gust
km/h
Spd
kts
Gust
kts
18/11:30pm 15.1 12.9 7.7 61 3.7 S 9 15 5 8 1017.9 - 0.0
18/11:00pm 15.6 12.8 7.1 57 4.2 S 11 19 6 10 1017.7 - 0.0
18/10:30pm 16.0 13.1 6.4 53 4.7 S 11 19 6 10 1017.4 - 0.0
18/10:00pm 16.5 13.6 6.5 51 4.9 S 11 17 6 9 1017.1 - 0.0
18/09:30pm 17.1 14.0 7.1 51 5.0 S 13 20 7 11 1016.7 - 0.0
18/09:00pm 17.7 14.2 7.1 50 5.3 SSW 15 22 8 12 1016.3 1016.2 0.0
18/08:30pm 18.1 14.8 7.9 51 5.2 SW 15 24 8 13 1016.0 - 0.0
18/08:00pm 18.7 14.3 7.5 48 5.7 SW 20 30 11 16 1015.6 - 0.0
18/07:30pm 19.7 15.5 8.1 47 6.0 SW 20 32 11 17 1015.3 - 0.0
18/07:00pm 20.2 16.2 8.1 45 6.3 WSW 19 28 10 15 1015.0 - 0.0
18/06:30pm 20.2 16.6 9.7 51 5.6 SSW 19 30 10 16 1014.6 - 0.0
18/06:00pm 20.2 16.7 10.9 55 5.1 SW 20 32 11 17 1014.3 1014.1 0.0
18/05:30pm 21.3 17.5 11.0 51 5.7 SW 22 37 12 20 1013.9 - 0.0
18/05:00pm 21.6 17.4 11.1 51 5.8 WSW 24 43 13 23 1013.8 - 0.0
18/04:30pm 22.3 18.1 11.1 49 6.2 SW 24 35 13 19 1013.5 - 0.0
18/04:00pm 23.2 19.1 10.1 43 7.2 WSW 22 35 12 19 1013.5 - 0.0
18/03:30pm 23.2 18.9 9.3 41 7.5 SW 22 33 12 18 1013.4 - 0.0
18/03:00pm 23.3 18.8 10.0 43 7.3 SW 24 35 13 19 1013.1 1012.9 0.0
18/02:30pm 22.7 18.1 9.6 43 7.1 SW 24 39 13 21 1013.0 - 0.0
18/02:00pm 21.7 16.9 8.7 43 6.9 WSW 24 39 13 21 1013.2 - 0.0
18/01:30pm 21.6 16.8 10.4 49 6.1 WSW 26 41 14 22 1013.1 - 0.0
18/01:00pm 20.9 17.3 11.8 56 5.1 WSW 22 33 12 18 1012.8 - 0.0
18/12:30pm 21.2 16.7 11.5 54 5.4 W 26 43 14 23 1012.8 - 0.0
18/12:00pm 21.9 16.7 10.4 48 6.3 WSW 28 41 15 22 1012.5 1012.4 0.0
18/11:30am 21.2 17.8 10.6 50 5.8 WSW 19 35 10 19 1012.3 - 0.0
18/11:00am 21.9 17.4 10.2 47 6.4 W 24 37 13 20 1012.2 - 0.0
18/10:30am 21.9 17.8 10.2 47 6.4 WNW 22 35 12 19 1012.1 - 0.0
18/10:00am 21.2 17.4 9.9 48 6.1 W 20 33 11 18 1011.9 - 0.0
18/09:30am 20.0 15.8 9.7 51 5.5 NW 22 39 12 21 1011.7 - 0.0
18/09:00am 20.0 16.2 9.7 51 5.5 WNW 20 32 11 17 1011.4 1011.3 0.0
18/08:30am 19.0 14.9 10.0 56 4.8 W 22 33 12 18 1011.3 - 0.0
18/08:00am 18.7 14.5 9.9 56 4.7 WNW 22 35 12 19 1010.8 - 0.0
18/07:30am 17.8 14.1 9.4 58 4.4 W 19 28 10 15 1010.6 - 0.0
18/07:00am 16.9 14.4 9.7 62 3.8 W 13 20 7 11 1010.3 - 0.0
18/06:30am 15.5 13.7 9.5 67 3.1 W 9 17 5 9 1009.9 - 0.0
18/06:00am 14.5 12.4 9.9 74 2.4 WNW 11 15 6 8 1009.7 1009.6 0.0
18/05:30am 13.8 12.5 9.9 77 2.0 WNW 7 9 4 5 1009.4 - 0.0
18/05:00am 13.7 12.9 9.6 76 2.1 NE 4 7 2 4 1009.0 - 0.0
18/04:30am 14.0 13.5 9.3 73 2.4 NE 2 7 1 4 1008.7 - 0.0
18/04:00am 13.5 12.7 9.8 78 1.9 S 4 7 2 4 1008.3 - 0.0
18/03:30am 13.7 13.6 9.4 75 2.2 CALM 0 0 0 0 1008.3 - 0.0
18/03:00am 14.2 12.8 8.9 70 2.7 NNW 6 11 3 6 1008.1 1008.0 0.0
18/02:30am 14.3 13.7 8.8 69 2.8 NNE 2 7 1 4 1008.0 - 0.0
18/02:00am 14.6 13.0 8.7 67 3.0 ENE 7 11 4 6 1008.2 - 0.0
18/01:30am 14.6 14.5 9.6 72 2.6 CALM 0 6 0 3 1008.4 - 0.0
18/01:00am 14.8 14.7 9.4 70 2.8 CALM 0 0 0 0 1008.5 - 0.0
18/12:30am 15.2 15.0 9.2 67 3.1 CALM 0 0 0 0 1008.7 - 0.0
18/12:00am 15.8 14.3 8.6 62 3.7 ESE 6 7 3 4 1009.2 1009.1 0.0
 
Date/Time
CDT
Temp
°C
App
Temp
°C
Dew
Point
Rel
Hum
%
Delta-T
°C
Wind Press
QNH
hPa
Press
MSL
hPa
Rain
since 9 am
mm
Dir
 
Spd
km/h
Gust
km/h
Spd
kts
Gust
kts
17/11:30pm 16.0 14.6 8.8 62 3.7 SSE 6 7 3 4 1009.4 - 0.0
17/11:00pm 16.5 14.9 8.7 60 4.0 SSW 7 13 4 7 1009.5 - 0.0
17/10:30pm 17.1 14.4 8.8 58 4.3 SW 13 19 7 10 1009.2 - 0.0
17/10:00pm 17.7 15.2 8.1 53 4.9 SW 11 17 6 9 1008.9 - 0.0

Other Formats:

Comma delimited format used in spreadsheet applications
http://www.bom.gov.au/fwo/IDS60801/IDS60801.94675.axf

JavaScript Object Notation format (JSON) in row-major order
http://www.bom.gov.au/fwo/IDS60801/IDS60801.94675.json